Terminal Aerodrome Forecast
Issued by NWS

Home | Current Version | Previous Version | Text Only | Print | Product List | Glossary Off
Versions: 1 2 3 4 5 6 7 8 9 10 11 12 13 14 15 16 17 18

172
FTUS43 KMPX 092345
TAFAXN
TAF
KAXN 092345Z 1000/1024 30007KT P6SM SCT020
      TEMPO 1000/1002 BKN020
     FM101000 33003KT P6SM BKN010 BKN150
     FM101500 VRB03KT P6SM SCT025 OVC080
     FM102000 11007KT 1 1/2SM -SN OVC015=

USA.gov is the U.S. government's official web portal to all federal, state and local government web resources and services.